createdAt,value
2023-05-13T00:00:05.714Z,92
2023-05-13T00:00:34.255Z,92
2023-05-13T00:00:53.121Z,92
2023-05-13T00:01:24.255Z,92
2023-05-13T00:01:41.486Z,92
2023-05-13T00:02:12.280Z,92
2023-05-13T00:02:34.359Z,92
2023-05-13T00:03:00.960Z,92
2023-05-13T00:03:32.460Z,92
2023-05-13T00:04:04.765Z,92
2023-05-13T00:04:34.162Z,92
2023-05-13T00:04:52.165Z,92
2023-05-13T00:05:25.278Z,92
2023-05-13T00:05:56.213Z,92
2023-05-13T00:06:28.231Z,92
2023-05-13T00:07:00.152Z,92
2023-05-13T00:07:32.188Z,92
2023-05-13T00:08:04.395Z,92
2023-05-13T00:08:34.229Z,92
2023-05-13T00:08:53.010Z,92
2023-05-13T00:09:24.253Z,92
2023-05-13T00:09:41.304Z,92
2023-05-13T00:10:13.185Z,92
2023-05-13T00:10:34.304Z,92
2023-05-13T00:11:00.277Z,92
2023-05-13T00:11:32.910Z,92
2023-05-13T00:12:04.657Z,92
2023-05-13T00:12:34.193Z,92
2023-05-13T00:12:52.983Z,92
2023-05-13T00:13:24.286Z,92
2023-05-13T00:13:41.284Z,92
2023-05-13T00:14:13.032Z,92
2023-05-13T00:14:34.212Z,92
2023-05-13T00:15:00.421Z,92
2023-05-13T00:15:32.956Z,92
2023-05-13T00:16:04.634Z,92
2023-05-13T00:16:35.140Z,92
2023-05-13T00:16:52.246Z,92
2023-05-13T00:17:24.437Z,92
2023-05-13T00:17:41.305Z,92
2023-05-13T00:18:12.944Z,92
2023-05-13T00:18:34.658Z,92
2023-05-13T00:19:00.325Z,92
2023-05-13T00:19:32.884Z,92
2023-05-13T00:20:04.595Z,92
2023-05-13T00:20:34.508Z,92
2023-05-13T00:20:53.127Z,92
2023-05-13T00:21:24.285Z,93
2023-05-13T00:21:41.310Z,93
2023-05-13T00:22:13.026Z,93
2023-05-13T00:22:34.184Z,93
2023-05-13T00:23:00.240Z,93
2023-05-13T00:23:32.837Z,93
2023-05-13T00:24:04.437Z,93
2023-05-13T00:24:34.104Z,93
2023-05-13T00:24:52.942Z,93
2023-05-13T00:25:24.418Z,93
2023-05-13T00:25:41.314Z,93
2023-05-13T00:26:12.970Z,93
2023-05-13T00:26:34.160Z,93
2023-05-13T00:27:00.236Z,93
2023-05-13T00:27:32.896Z,93
2023-05-13T00:28:04.384Z,93
2023-05-13T00:28:34.881Z,93
2023-05-13T00:28:52.195Z,93
2023-05-13T00:29:24.181Z,93
2023-05-13T00:29:41.303Z,93
2023-05-13T00:30:13.101Z,93
2023-05-13T00:30:34.249Z,93
2023-05-13T00:31:00.175Z,93
2023-05-13T00:31:33.063Z,93
2023-05-13T00:32:04.793Z,93
2023-05-13T00:32:34.302Z,93
2023-05-13T00:32:52.928Z,93
2023-05-13T00:33:24.449Z,93
2023-05-13T00:33:41.417Z,93
2023-05-13T00:34:13.208Z,93
2023-05-13T00:34:34.107Z,93
2023-05-13T00:35:00.479Z,93
2023-05-13T00:35:33.026Z,93
2023-05-13T00:36:04.491Z,93
2023-05-13T00:36:34.211Z,93
2023-05-13T00:36:52.967Z,93
2023-05-13T00:37:24.266Z,93
2023-05-13T00:37:41.286Z,93
2023-05-13T00:38:12.969Z,93
2023-05-13T00:38:34.125Z,93
2023-05-13T00:39:00.209Z,93
2023-05-13T00:39:32.177Z,93
2023-05-13T00:40:04.586Z,93
2023-05-13T00:40:34.724Z,93
2023-05-13T00:40:52.364Z,93
2023-05-13T00:41:25.137Z,93
2023-05-13T00:41:56.195Z,93
2023-05-13T00:42:28.146Z,93
2023-05-13T00:43:00.217Z,93
2023-05-13T00:43:32.236Z,93
2023-05-13T00:44:04.939Z,93
2023-05-13T00:44:34.170Z,93
2023-05-13T00:44:52.883Z,93
2023-05-13T00:45:24.510Z,93
2023-05-13T00:45:41.355Z,93
2023-05-13T00:46:13.015Z,93
2023-05-13T00:46:34.764Z,93
2023-05-13T00:47:00.210Z,93
2023-05-13T00:47:32.868Z,93
2023-05-13T00:48:04.441Z,93
2023-05-13T00:48:34.991Z,93
2023-05-13T00:48:52.868Z,93
2023-05-13T00:49:24.237Z,93
2023-05-13T00:49:41.397Z,93
2023-05-13T00:50:13.175Z,93
2023-05-13T00:50:34.177Z,93
2023-05-13T00:51:00.181Z,93
2023-05-13T00:51:32.940Z,93
2023-05-13T00:52:04.325Z,93
2023-05-13T00:52:34.791Z,93
2023-05-13T00:52:52.859Z,93
2023-05-13T00:53:24.618Z,93
2023-05-13T00:53:41.303Z,93
2023-05-13T00:54:12.876Z,93
2023-05-13T00:54:34.578Z,93
2023-05-13T00:55:00.291Z,93
2023-05-13T00:55:32.977Z,93
2023-05-13T00:56:04.523Z,93
2023-05-13T00:56:34.126Z,93
2023-05-13T00:56:52.976Z,93
2023-05-13T00:57:24.236Z,93
2023-05-13T00:57:41.313Z,93
2023-05-13T00:58:12.882Z,93
2023-05-13T00:58:34.208Z,93
2023-05-13T00:59:00.443Z,93
2023-05-13T00:59:32.918Z,93
2023-05-13T01:00:06.464Z,93
2023-05-13T01:00:35.587Z,93
2023-05-13T01:00:52.146Z,93
2023-05-13T01:01:24.448Z,93
2023-05-13T01:01:41.794Z,93
2023-05-13T01:02:12.915Z,93
2023-05-13T01:02:35.020Z,93
2023-05-13T01:03:00.392Z,93
2023-05-13T01:03:32.911Z,93
2023-05-13T01:04:04.468Z,93
2023-05-13T01:04:34.148Z,93
2023-05-13T01:04:52.868Z,93
2023-05-13T01:05:24.934Z,93
2023-05-13T01:05:41.366Z,93
2023-05-13T01:06:12.164Z,93
2023-05-13T01:06:34.110Z,93
2023-05-13T01:07:00.896Z,93
2023-05-13T01:07:32.255Z,93
2023-05-13T01:08:04.979Z,93
2023-05-13T01:08:34.072Z,93
2023-05-13T01:08:52.157Z,93
2023-05-13T01:09:24.991Z,93
2023-05-13T01:09:56.249Z,93
2023-05-13T01:10:28.291Z,93
2023-05-13T01:11:00.237Z,93
2023-05-13T01:11:32.190Z,93
2023-05-13T01:12:04.483Z,93
2023-05-13T01:12:34.993Z,94
2023-05-13T01:12:52.898Z,94
2023-05-13T01:13:24.632Z,94
2023-05-13T01:13:41.312Z,94
2023-05-13T01:14:28.832Z,94
2023-05-13T01:15:00.432Z,94
2023-05-13T01:15:32.157Z,94
2023-05-13T01:16:04.576Z,94
2023-05-13T01:16:34.316Z,94
2023-05-13T01:16:52.976Z,94
2023-05-13T01:17:24.237Z,94
2023-05-13T01:17:41.520Z,94
2023-05-13T01:18:16.959Z,94
2023-05-13T01:18:34.353Z,94
2023-05-13T01:19:00.261Z,94
2023-05-13T01:19:32.209Z,94
2023-05-13T01:20:05.344Z,94
2023-05-13T01:20:34.107Z,94
2023-05-13T01:20:52.319Z,94
2023-05-13T01:21:25.529Z,94
2023-05-13T01:21:56.289Z,94
2023-05-13T01:22:28.295Z,94
2023-05-13T01:23:00.198Z,94
2023-05-13T01:23:32.220Z,94
2023-05-13T01:24:04.605Z,94
2023-05-13T01:24:34.186Z,94
2023-05-13T01:24:52.905Z,94
2023-05-13T01:25:24.464Z,94
2023-05-13T01:25:41.362Z,94
2023-05-13T01:26:12.951Z,94
2023-05-13T01:26:34.500Z,94
2023-05-13T01:27:00.147Z,94
2023-05-13T01:27:32.841Z,94
2023-05-13T01:28:04.495Z,94
2023-05-13T01:28:35.119Z,94
2023-05-13T01:28:52.331Z,94
2023-05-13T01:29:24.230Z,94
2023-05-13T01:29:41.983Z,94
2023-05-13T01:30:12.490Z,94
2023-05-13T01:30:34.174Z,94
2023-05-13T01:31:00.279Z,94
2023-05-13T01:31:32.214Z,94
2023-05-13T01:32:05.066Z,94
2023-05-13T01:32:34.164Z,94
2023-05-13T01:32:52.225Z,94
2023-05-13T01:33:25.150Z,94
2023-05-13T01:33:56.207Z,94
2023-05-13T01:34:28.170Z,94
2023-05-13T01:35:00.356Z,94
2023-05-13T01:35:32.140Z,94
2023-05-13T01:36:04.519Z,94
2023-05-13T01:36:34.100Z,94
2023-05-13T01:36:52.870Z,94
2023-05-13T01:37:24.255Z,94
2023-05-13T01:37:41.487Z,94
2023-05-13T01:38:12.926Z,94
2023-05-13T01:38:34.025Z,94
2023-05-13T01:39:00.175Z,94
2023-05-13T01:39:32.892Z,94
2023-05-13T01:40:12.169Z,94
2023-05-13T01:40:34.153Z,94
2023-05-13T01:40:53.125Z,94
2023-05-13T01:41:24.221Z,94
2023-05-13T01:41:41.270Z,94
2023-05-13T01:42:12.178Z,94
2023-05-13T01:42:34.065Z,94
2023-05-13T01:43:00.931Z,94
2023-05-13T01:43:32.161Z,94
2023-05-13T01:44:04.733Z,94
2023-05-13T01:44:34.901Z,94
2023-05-13T01:44:52.205Z,94
2023-05-13T01:45:25.434Z,94
2023-05-13T01:45:56.304Z,94
2023-05-13T01:46:28.281Z,94
2023-05-13T01:47:00.199Z,94
2023-05-13T01:47:32.216Z,94
2023-05-13T01:48:04.514Z,94
2023-05-13T01:48:34.409Z,94
2023-05-13T01:48:52.975Z,94
2023-05-13T01:49:24.250Z,94
2023-05-13T01:49:41.301Z,94
2023-05-13T01:50:12.302Z,94
2023-05-13T01:50:34.682Z,94
2023-05-13T01:51:00.964Z,94
2023-05-13T01:51:32.155Z,94
2023-05-13T01:52:04.457Z,94
2023-05-13T01:52:34.251Z,94
2023-05-13T01:52:52.178Z,94
2023-05-13T01:53:25.064Z,94
2023-05-13T01:53:56.273Z,94
2023-05-13T01:54:28.240Z,94
2023-05-13T01:55:00.385Z,94
2023-05-13T01:55:32.226Z,94
2023-05-13T01:56:04.558Z,94
2023-05-13T01:56:34.191Z,94
2023-05-13T01:56:52.831Z,94
2023-05-13T01:57:24.224Z,94
2023-05-13T01:57:41.349Z,94
2023-05-13T01:58:12.813Z,94
2023-05-13T01:58:34.014Z,94
2023-05-13T01:59:00.209Z,94
2023-05-13T01:59:32.878Z,94
2023-05-13T02:00:06.728Z,94
2023-05-13T02:00:35.269Z,94
2023-05-13T02:01:08.195Z,94
2023-05-13T02:01:34.141Z,94
2023-05-13T02:01:57.006Z,94
2023-05-13T02:02:28.369Z,94
2023-05-13T02:03:00.945Z,94
2023-05-13T02:03:32.224Z,94
2023-05-13T02:04:04.580Z,94
2023-05-13T02:04:34.613Z,94
2023-05-13T02:04:52.182Z,94
2023-05-13T02:05:25.304Z,94
2023-05-13T02:05:56.170Z,94
2023-05-13T02:06:28.146Z,94
2023-05-13T02:07:00.448Z,94
2023-05-13T02:07:32.212Z,94
2023-05-13T02:08:04.416Z,94
2023-05-13T02:08:34.597Z,94
2023-05-13T02:08:53.055Z,94
2023-05-13T02:09:24.396Z,94
2023-05-13T02:09:41.305Z,94
2023-05-13T02:10:13.148Z,94
2023-05-13T02:10:33.997Z,94
2023-05-13T02:11:00.204Z,94
2023-05-13T02:11:32.959Z,94
2023-05-13T02:12:04.332Z,94
2023-05-13T02:12:34.058Z,94
2023-05-13T02:12:52.844Z,94
2023-05-13T02:13:24.208Z,94
2023-05-13T02:13:41.341Z,94
2023-05-13T02:14:12.923Z,94
2023-05-13T02:14:34.528Z,94
2023-05-13T02:15:00.422Z,94
2023-05-13T02:15:33.031Z,94
2023-05-13T02:16:04.531Z,94
2023-05-13T02:16:34.240Z,94
2023-05-13T02:16:52.895Z,94
2023-05-13T02:17:24.316Z,94
2023-05-13T02:17:41.359Z,94
2023-05-13T02:18:12.989Z,94
2023-05-13T02:18:34.063Z,94
2023-05-13T02:19:00.249Z,94
2023-05-13T02:19:32.956Z,94
2023-05-13T02:20:04.682Z,94
2023-05-13T02:20:34.086Z,94
2023-05-13T02:20:53.061Z,94
2023-05-13T02:21:24.228Z,94
2023-05-13T02:21:41.265Z,94
2023-05-13T02:22:12.982Z,94
2023-05-13T02:22:34.647Z,94
2023-05-13T02:23:00.195Z,94
2023-05-13T02:23:32.147Z,94
2023-05-13T02:24:04.354Z,95
2023-05-13T02:24:34.164Z,95
2023-05-13T02:24:52.241Z,95
2023-05-13T02:25:25.357Z,95
2023-05-13T02:25:56.232Z,95
2023-05-13T02:26:28.241Z,95
2023-05-13T02:27:00.190Z,95
2023-05-13T02:27:32.189Z,95
2023-05-13T02:28:04.371Z,95
2023-05-13T02:28:34.060Z,95
2023-05-13T02:28:53.003Z,95
2023-05-13T02:29:24.191Z,95
2023-05-13T02:29:41.279Z,95
2023-05-13T02:30:13.144Z,95
2023-05-13T02:30:34.568Z,95
2023-05-13T02:31:00.151Z,95
2023-05-13T02:31:32.925Z,95
2023-05-13T02:32:04.905Z,95
2023-05-13T02:32:34.059Z,95
2023-05-13T02:32:52.888Z,95
2023-05-13T02:33:24.246Z,95
2023-05-13T02:33:41.379Z,95
2023-05-13T02:34:13.163Z,95
2023-05-13T02:34:34.155Z,95
2023-05-13T02:35:00.371Z,95
2023-05-13T02:35:32.984Z,95
2023-05-13T02:36:04.439Z,95
2023-05-13T02:36:34.692Z,95
2023-05-13T02:36:52.848Z,95
2023-05-13T02:37:24.206Z,95
2023-05-13T02:37:41.305Z,95
2023-05-13T02:38:12.980Z,95
2023-05-13T02:38:34.119Z,95
2023-05-13T02:39:00.133Z,95
2023-05-13T02:39:32.871Z,95
2023-05-13T02:40:04.493Z,95
2023-05-13T02:40:34.605Z,95
2023-05-13T02:40:53.135Z,95
2023-05-13T02:41:24.351Z,95
2023-05-13T02:41:41.273Z,95
2023-05-13T02:42:12.845Z,95
2023-05-13T02:42:35.095Z,95
2023-05-13T02:43:00.261Z,95
2023-05-13T02:43:33.033Z,95
2023-05-13T02:44:04.584Z,95
2023-05-13T02:44:34.079Z,95
2023-05-13T02:44:53.260Z,95
2023-05-13T02:45:24.429Z,95
2023-05-13T02:45:41.308Z,95
2023-05-13T02:46:13.028Z,95
2023-05-13T02:46:34.143Z,95
2023-05-13T02:47:00.177Z,95
2023-05-13T02:47:32.900Z,95
2023-05-13T02:48:04.795Z,95
2023-05-13T02:48:34.236Z,95
2023-05-13T02:48:52.867Z,95
2023-05-13T02:49:24.225Z,95
2023-05-13T02:49:42.146Z,95
2023-05-13T02:50:13.080Z,95
2023-05-13T02:50:34.030Z,95
2023-05-13T02:51:00.190Z,95
2023-05-13T02:51:32.904Z,95
2023-05-13T02:52:04.590Z,95
2023-05-13T02:52:34.177Z,95
2023-05-13T02:52:52.930Z,95
2023-05-13T02:53:24.168Z,95
2023-05-13T02:53:41.263Z,95
2023-05-13T02:54:12.890Z,95
2023-05-13T02:54:34.189Z,95
2023-05-13T02:55:00.358Z,95
2023-05-13T02:55:32.981Z,95
2023-05-13T02:56:04.354Z,95
2023-05-13T02:56:34.107Z,95
2023-05-13T02:56:52.900Z,95
2023-05-13T02:57:24.231Z,95
2023-05-13T02:57:41.312Z,95
2023-05-13T02:58:12.859Z,95
2023-05-13T02:58:34.578Z,95
2023-05-13T02:59:00.168Z,95
2023-05-13T02:59:33.122Z,95
2023-05-13T03:00:05.064Z,95
2023-05-13T03:00:34.020Z,95
2023-05-13T03:00:53.208Z,95
2023-05-13T03:01:24.383Z,95
2023-05-13T03:01:41.358Z,95
2023-05-13T03:02:12.825Z,95
2023-05-13T03:02:34.228Z,95
2023-05-13T03:03:00.366Z,95
2023-05-13T03:03:33.109Z,95
2023-05-13T03:04:04.556Z,95
2023-05-13T03:04:34.235Z,95
2023-05-13T03:04:52.876Z,95
2023-05-13T03:05:24.443Z,95
2023-05-13T03:05:41.401Z,95
2023-05-13T03:06:12.948Z,95
2023-05-13T03:06:34.156Z,95
2023-05-13T03:07:00.221Z,95
2023-05-13T03:07:32.985Z,95
2023-05-13T03:08:04.270Z,95
2023-05-13T03:08:34.923Z,95
2023-05-13T03:08:53.074Z,95
2023-05-13T03:09:24.249Z,95
2023-05-13T03:09:41.284Z,95
2023-05-13T03:10:13.200Z,95
2023-05-13T03:10:35.071Z,95
2023-05-13T03:11:00.191Z,95
2023-05-13T03:11:32.869Z,95
2023-05-13T03:12:04.342Z,95
2023-05-13T03:12:34.469Z,95
2023-05-13T03:12:52.865Z,95
2023-05-13T03:13:24.225Z,95
2023-05-13T03:13:41.345Z,95
2023-05-13T03:14:12.837Z,95
2023-05-13T03:14:34.074Z,95
2023-05-13T03:15:00.384Z,95
2023-05-13T03:15:32.982Z,95
2023-05-13T03:16:04.367Z,95
2023-05-13T03:16:34.730Z,95
2023-05-13T03:16:52.962Z,95
2023-05-13T03:17:24.302Z,95
2023-05-13T03:17:41.496Z,95
2023-05-13T03:18:12.829Z,95
2023-05-13T03:18:34.351Z,95
2023-05-13T03:19:00.253Z,95
2023-05-13T03:19:32.191Z,95
2023-05-13T03:20:04.505Z,95
2023-05-13T03:20:34.169Z,95
2023-05-13T03:20:52.326Z,95
2023-05-13T03:21:25.028Z,95
2023-05-13T03:21:41.977Z,95
2023-05-13T03:22:12.284Z,95
2023-05-13T03:22:34.201Z,95
2023-05-13T03:23:00.887Z,95
2023-05-13T03:23:32.150Z,95
2023-05-13T03:24:04.386Z,95
2023-05-13T03:24:34.484Z,95
2023-05-13T03:24:52.198Z,95
2023-05-13T03:25:25.171Z,95
2023-05-13T03:25:56.190Z,95
2023-05-13T03:26:28.198Z,95
2023-05-13T03:27:00.195Z,95
2023-05-13T03:27:32.141Z,95
2023-05-13T03:28:04.362Z,95
2023-05-13T03:28:34.339Z,95
2023-05-13T03:28:53.018Z,95
2023-05-13T03:29:24.313Z,95
2023-05-13T03:29:41.311Z,95
2023-05-13T03:30:13.161Z,95
2023-05-13T03:30:34.140Z,95
2023-05-13T03:31:00.276Z,95
2023-05-13T03:31:33.720Z,95
2023-05-13T03:32:04.266Z,95
2023-05-13T03:32:34.109Z,95
2023-05-13T03:32:52.967Z,95
2023-05-13T03:33:24.372Z,95
2023-05-13T03:33:41.384Z,95
2023-05-13T03:34:12.864Z,95
2023-05-13T03:34:34.247Z,95
2023-05-13T03:35:00.391Z,95
2023-05-13T03:35:32.804Z,95
2023-05-13T03:36:04.825Z,95
2023-05-13T03:36:34.247Z,95
2023-05-13T03:36:52.917Z,95
2023-05-13T03:37:24.201Z,95
2023-05-13T03:37:41.278Z,95
2023-05-13T03:38:12.943Z,95
2023-05-13T03:38:34.180Z,95
2023-05-13T03:39:00.234Z,95
2023-05-13T03:39:32.843Z,95
2023-05-13T03:40:04.827Z,95
2023-05-13T03:40:34.177Z,95
2023-05-13T03:40:53.113Z,95
2023-05-13T03:41:24.207Z,95
2023-05-13T03:41:41.359Z,95
2023-05-13T03:42:12.872Z,95
2023-05-13T03:42:34.223Z,95
2023-05-13T03:43:00.198Z,95
2023-05-13T03:43:32.856Z,95
2023-05-13T03:44:04.545Z,95
2023-05-13T03:44:34.289Z,95
2023-05-13T03:44:52.837Z,95
2023-05-13T03:45:24.527Z,95
2023-05-13T03:45:41.307Z,95
2023-05-13T03:46:12.229Z,95
2023-05-13T03:46:35.196Z,95
2023-05-13T03:47:00.927Z,95
2023-05-13T03:47:32.290Z,95
2023-05-13T03:48:04.438Z,95
2023-05-13T03:48:34.343Z,95
2023-05-13T03:48:52.321Z,95
2023-05-13T03:49:25.099Z,95
2023-05-13T03:49:42.101Z,95
2023-05-13T03:50:12.331Z,95
2023-05-13T03:50:34.145Z,95
2023-05-13T03:51:01.138Z,95
2023-05-13T03:51:32.248Z,95
2023-05-13T03:52:04.404Z,95
2023-05-13T03:52:34.301Z,95
2023-05-13T03:52:52.758Z,95
2023-05-13T03:53:25.125Z,95
2023-05-13T03:53:42.120Z,95
2023-05-13T03:54:12.324Z,95
2023-05-13T03:54:34.327Z,95
2023-05-13T03:55:01.325Z,95
2023-05-13T03:55:32.301Z,95
2023-05-13T03:56:05.266Z,95
2023-05-13T03:56:34.434Z,95
2023-05-13T03:56:52.262Z,95
2023-05-13T03:57:24.282Z,95
2023-05-13T03:57:41.493Z,95
2023-05-13T03:58:12.985Z,95
2023-05-13T03:58:34.444Z,95
2023-05-13T03:59:00.342Z,95
2023-05-13T03:59:32.971Z,95
2023-05-13T04:00:05.254Z,95
2023-05-13T04:00:34.464Z,95
2023-05-13T04:00:53.265Z,95
2023-05-13T04:01:24.394Z,95
2023-05-13T04:01:41.518Z,95
2023-05-13T04:02:13.014Z,95
2023-05-13T04:02:34.259Z,95
2023-05-13T04:03:00.371Z,95
2023-05-13T04:03:33.134Z,95
2023-05-13T04:04:04.513Z,95
2023-05-13T04:04:34.293Z,95
2023-05-13T04:04:53.100Z,95
2023-05-13T04:05:24.518Z,95
2023-05-13T04:05:41.470Z,95
2023-05-13T04:06:13.088Z,95
2023-05-13T04:06:34.308Z,95
2023-05-13T04:07:00.345Z,95
2023-05-13T04:07:33.062Z,95
2023-05-13T04:08:04.416Z,95
2023-05-13T04:08:34.240Z,95
2023-05-13T04:08:53.039Z,95
2023-05-13T04:09:24.274Z,95
2023-05-13T04:09:41.404Z,95
2023-05-13T04:10:15.596Z,95
2023-05-13T04:10:34.342Z,95
2023-05-13T04:11:00.359Z,95
2023-05-13T04:11:33.018Z,95
2023-05-13T04:12:04.532Z,95
2023-05-13T04:12:35.249Z,95
2023-05-13T04:12:52.838Z,95
2023-05-13T04:13:24.341Z,95
2023-05-13T04:13:41.518Z,95
2023-05-13T04:14:13.029Z,95
2023-05-13T04:14:34.277Z,95
2023-05-13T04:15:01.310Z,95
2023-05-13T04:15:32.330Z,95
2023-05-13T04:16:04.495Z,95
2023-05-13T04:16:34.475Z,95
2023-05-13T04:16:52.801Z,95
2023-05-13T04:17:25.158Z,95
2023-05-13T04:17:56.385Z,95
2023-05-13T04:18:28.473Z,95
2023-05-13T04:19:00.826Z,95
2023-05-13T04:19:33.096Z,95
2023-05-13T04:20:06.051Z,95
2023-05-13T04:20:34.337Z,95
2023-05-13T04:20:53.458Z,95
2023-05-13T04:21:24.509Z,95
2023-05-13T04:21:42.492Z,95
2023-05-13T04:22:13.047Z,95
2023-05-13T04:22:35.324Z,95
2023-05-13T04:23:01.799Z,95
2023-05-13T04:23:33.225Z,95
2023-05-13T04:24:04.640Z,95
2023-05-13T04:24:34.347Z,95
2023-05-13T04:24:53.162Z,95
2023-05-13T04:25:24.677Z,95
2023-05-13T04:25:41.689Z,95
2023-05-13T04:26:13.110Z,95
2023-05-13T04:26:34.460Z,95
2023-05-13T04:27:01.610Z,95
2023-05-13T04:27:33.344Z,95
2023-05-13T04:28:04.659Z,95
2023-05-13T04:28:34.646Z,95
2023-05-13T04:28:52.342Z,95
2023-05-13T04:29:24.420Z,95
2023-05-13T04:29:41.588Z,95
2023-05-13T04:30:13.531Z,95
2023-05-13T04:30:34.452Z,95
2023-05-13T04:31:00.330Z,95
2023-05-13T04:31:32.431Z,95
2023-05-13T04:32:04.561Z,95
2023-05-13T04:32:35.078Z,95
2023-05-13T04:32:52.483Z,95
2023-05-13T04:33:25.342Z,95
2023-05-13T04:33:57.190Z,95
2023-05-13T04:34:28.373Z,95
2023-05-13T04:35:00.578Z,95
2023-05-13T04:35:32.350Z,95
2023-05-13T04:36:05.634Z,95
2023-05-13T04:36:35.142Z,95
2023-05-13T04:36:53.057Z,95
2023-05-13T04:37:24.410Z,95
2023-05-13T04:37:41.427Z,95
2023-05-13T04:38:13.104Z,95
2023-05-13T04:38:34.297Z,95
2023-05-13T04:39:00.353Z,95
2023-05-13T04:39:33.053Z,95
2023-05-13T04:40:05.368Z,95
2023-05-13T04:40:34.392Z,95
2023-05-13T04:40:53.292Z,95
2023-05-13T04:41:24.474Z,95
2023-05-13T04:41:41.535Z,95
2023-05-13T04:42:13.033Z,95
2023-05-13T04:42:34.634Z,95
2023-05-13T04:43:00.387Z,95
2023-05-13T04:43:33.162Z,95
2023-05-13T04:44:04.968Z,95
2023-05-13T04:44:35.008Z,95
2023-05-13T04:44:52.477Z,95
2023-05-13T04:45:25.023Z,95
2023-05-13T04:45:41.574Z,95
2023-05-13T04:46:13.201Z,95
2023-05-13T04:46:35.216Z,95
2023-05-13T04:47:00.336Z,95
2023-05-13T04:47:33.166Z,95
2023-05-13T04:48:04.766Z,95
2023-05-13T04:48:34.735Z,95
2023-05-13T04:48:53.096Z,95
2023-05-13T04:49:24.374Z,95
2023-05-13T04:49:41.645Z,95
2023-05-13T04:50:13.251Z,95
2023-05-13T04:50:34.348Z,95
2023-05-13T04:51:00.985Z,95
2023-05-13T04:51:33.165Z,95
2023-05-13T04:52:04.430Z,95
2023-05-13T04:52:34.442Z,95
2023-05-13T04:52:52.998Z,95
2023-05-13T04:53:24.432Z,95
2023-05-13T04:53:41.448Z,95
2023-05-13T04:54:13.195Z,95
2023-05-13T04:54:34.334Z,95
2023-05-13T04:55:00.629Z,95
2023-05-13T04:55:33.329Z,95
2023-05-13T04:56:04.777Z,95
2023-05-13T04:56:35.215Z,95
2023-05-13T04:56:52.930Z,95
2023-05-13T04:57:24.362Z,95
2023-05-13T04:57:41.518Z,95
2023-05-13T04:58:12.315Z,95
2023-05-13T04:58:34.330Z,95
2023-05-13T04:59:01.115Z,95
2023-05-13T04:59:32.307Z,95
2023-05-13T05:00:05.788Z,95
2023-05-13T05:00:35.115Z,95
2023-05-13T05:00:52.574Z,95
2023-05-13T05:01:25.284Z,95
2023-05-13T05:01:56.731Z,95
2023-05-13T05:02:28.305Z,95
2023-05-13T05:03:00.495Z,95
2023-05-13T05:03:32.361Z,95
2023-05-13T05:04:04.674Z,95
2023-05-13T05:04:34.259Z,95
2023-05-13T05:04:53.047Z,95
2023-05-13T05:05:24.873Z,95
2023-05-13T05:05:41.484Z,95
2023-05-13T05:06:12.243Z,95
2023-05-13T05:06:34.408Z,95
2023-05-13T05:07:01.181Z,95
2023-05-13T05:07:32.313Z,95
2023-05-13T05:08:04.412Z,95
2023-05-13T05:08:34.213Z,95
2023-05-13T05:08:52.340Z,95
2023-05-13T05:09:26.549Z,95
2023-05-13T05:09:56.457Z,95
2023-05-13T05:10:28.542Z,95
2023-05-13T05:11:00.329Z,95
2023-05-13T05:11:32.432Z,95
2023-05-13T05:12:04.664Z,95
2023-05-13T05:12:34.511Z,95
2023-05-13T05:12:56.244Z,95
2023-05-13T05:13:24.421Z,95
2023-05-13T05:13:43.291Z,95
2023-05-13T05:14:12.471Z,95
2023-05-13T05:14:35.526Z,95
2023-05-13T05:15:02.643Z,95
2023-05-13T05:15:33.220Z,95
2023-05-13T05:16:05.098Z,95
2023-05-13T05:16:35.974Z,95
2023-05-13T05:17:11.922Z,94
2023-05-13T05:17:35.558Z,95
2023-05-13T05:17:57.382Z,95
2023-05-13T05:18:29.665Z,95
2023-05-13T05:19:03.410Z,95
2023-05-13T05:19:36.990Z,95
2023-05-13T05:20:06.475Z,94
2023-05-13T05:20:35.878Z,94
2023-05-13T05:20:53.165Z,94
2023-05-13T05:21:24.928Z,94
2023-05-13T05:21:42.891Z,94
2023-05-13T05:22:14.965Z,94
2023-05-13T05:22:36.867Z,94
2023-05-13T05:23:02.752Z,94
2023-05-13T05:23:34.698Z,94
2023-05-13T05:24:07.002Z,94
2023-05-13T05:24:35.615Z,94
2023-05-13T05:24:52.385Z,94
2023-05-13T05:25:25.874Z,94
2023-05-13T05:26:10.533Z,94
2023-05-13T05:26:30.773Z,94
2023-05-13T05:27:00.442Z,94
2023-05-13T05:27:33.009Z,94
2023-05-13T05:28:04.773Z,94
2023-05-13T05:28:34.759Z,94
2023-05-13T05:28:55.066Z,94
2023-05-13T05:29:24.636Z,94
2023-05-13T05:29:41.573Z,94
2023-05-13T05:30:14.656Z,94
2023-05-13T05:30:34.265Z,94
2023-05-13T05:31:00.596Z,94
2023-05-13T05:31:32.463Z,94
2023-05-13T05:32:05.808Z,94
2023-05-13T05:32:35.324Z,94
2023-05-13T05:32:52.546Z,94
2023-05-13T05:33:25.191Z,94
2023-05-13T05:33:43.438Z,94
2023-05-13T05:34:14.473Z,94
2023-05-13T05:34:34.383Z,94
2023-05-13T05:35:00.532Z,94
2023-05-13T05:35:35.428Z,94
2023-05-13T05:36:04.472Z,94
2023-05-13T05:36:37.993Z,94
2023-05-13T05:36:54.872Z,94
2023-05-13T05:37:24.668Z,94
2023-05-13T05:37:41.542Z,94
2023-05-13T05:38:13.295Z,94
2023-05-13T05:38:34.771Z,94
2023-05-13T05:39:05.756Z,94
2023-05-13T05:39:34.307Z,94
2023-05-13T05:40:06.442Z,93
2023-05-13T05:40:35.225Z,93
2023-05-13T05:40:53.460Z,93
2023-05-13T05:41:24.434Z,93
2023-05-13T05:41:42.164Z,93
2023-05-13T05:42:12.583Z,93
2023-05-13T05:42:34.274Z,93
2023-05-13T05:43:00.949Z,93
2023-05-13T05:43:33.483Z,93
2023-05-13T05:44:06.013Z,93
2023-05-13T05:44:36.453Z,93
2023-05-13T05:45:09.105Z,93
2023-05-13T05:45:35.085Z,93
2023-05-13T05:45:56.715Z,93
2023-05-13T05:46:28.646Z,93
2023-05-13T05:47:05.308Z,93
2023-05-13T05:47:32.817Z,92
2023-05-13T05:48:06.714Z,92
2023-05-13T05:48:36.011Z,92
2023-05-13T05:48:52.457Z,92
2023-05-13T05:49:26.429Z,92
2023-05-13T05:49:42.780Z,92
2023-05-13T05:50:16.220Z,91
2023-05-13T05:50:40.157Z,91
2023-05-13T05:51:02.154Z,91
2023-05-13T05:51:32.993Z,91
2023-05-13T05:52:06.576Z,91
2023-05-13T05:52:36.486Z,91
2023-05-13T05:52:53.025Z,91
2023-05-13T05:53:25.089Z,91
2023-05-13T05:53:43.909Z,91
2023-05-13T05:54:13.080Z,90
2023-05-13T05:54:35.305Z,90
2023-05-13T05:55:00.675Z,90
2023-05-13T05:55:34.401Z,90
2023-05-13T05:56:07.131Z,89
2023-05-13T05:56:35.774Z,89
2023-05-13T05:57:10.640Z,89
2023-05-13T05:57:35.017Z,89
2023-05-13T05:57:56.534Z,88
2023-05-13T05:58:28.414Z,88
2023-05-13T05:59:00.416Z,87
2023-05-13T05:59:32.785Z,87
2023-05-13T06:00:07.926Z,86
2023-05-13T06:00:37.117Z,86
2023-05-13T06:01:09.368Z,86
2023-05-13T06:01:36.160Z,86
2023-05-13T06:01:56.636Z,85
2023-05-13T06:02:29.995Z,85
2023-05-13T06:03:03.315Z,85
2023-05-13T06:03:33.179Z,84
2023-05-13T06:04:08.489Z,84
2023-05-13T06:04:34.624Z,84
2023-05-13T06:04:53.062Z,84
2023-05-13T06:05:24.555Z,84
2023-05-13T06:05:45.257Z,84
2023-05-13T06:06:13.506Z,84
2023-05-13T06:06:35.707Z,84
2023-05-13T06:07:00.688Z,84
2023-05-13T06:07:33.531Z,84
2023-05-13T06:08:08.379Z,84
2023-05-13T06:08:34.700Z,83
2023-05-13T06:08:52.581Z,83
2023-05-13T06:09:26.501Z,83
2023-05-13T06:09:44.783Z,83
2023-05-13T06:10:13.323Z,83
2023-05-13T06:10:34.298Z,83
2023-05-13T06:11:00.496Z,83
2023-05-13T06:11:33.142Z,83
2023-05-13T06:12:04.621Z,83
2023-05-13T06:12:34.410Z,83
2023-05-13T06:12:53.284Z,83
2023-05-13T06:13:24.678Z,83
2023-05-13T06:13:43.531Z,83
2023-05-13T06:14:15.350Z,83
2023-05-13T06:14:35.248Z,83
2023-05-13T06:15:00.629Z,83
2023-05-13T06:15:32.366Z,83
2023-05-13T06:16:04.421Z,83
2023-05-13T06:16:34.541Z,83
2023-05-13T06:16:53.520Z,83
2023-05-13T06:17:25.311Z,83
2023-05-13T06:17:56.530Z,83
2023-05-13T06:18:29.664Z,83
2023-05-13T06:19:00.448Z,83
2023-05-13T06:19:32.760Z,84
2023-05-13T06:20:06.283Z,84
2023-05-13T06:20:34.236Z,84
2023-05-13T06:20:53.408Z,84
2023-05-13T06:21:24.652Z,84
2023-05-13T06:21:41.573Z,84
2023-05-13T06:22:13.122Z,84
2023-05-13T06:22:35.477Z,84
2023-05-13T06:23:00.536Z,84
2023-05-13T06:23:33.149Z,84
2023-05-13T06:24:05.321Z,84
2023-05-13T06:24:34.862Z,84
2023-05-13T06:24:53.450Z,84
2023-05-13T06:25:25.169Z,84
2023-05-13T06:25:41.766Z,84
2023-05-13T06:26:13.348Z,84
2023-05-13T06:26:34.370Z,84
2023-05-13T06:27:00.320Z,84
2023-05-13T06:27:33.638Z,84
2023-05-13T06:28:05.195Z,84
2023-05-13T06:28:35.343Z,84
2023-05-13T06:28:52.329Z,84
2023-05-13T06:29:25.881Z,84
2023-05-13T06:29:42.047Z,84